Time;durP1;ratioP1;P1;durP2;ratioP2;P2;SDS_P1;SDS_P2;PMS_P1;PMS_P2;Temp;Humidity;BMP_temperature;BMP_pressure;BME280_temperature;BME280_humidity;BME280_pressure;Samples;Min_cycle;Max_cycle;Signal;HPM_P1;HPM_P2
2021/10/18 00:03:35;;;;;;;;;;;5.00;99.90;;;;;;8460320;28;20457;-65
2021/10/18 00:07:36;;;;;;;;;;;4.90;99.90;;;;;;8459853;28;19907;-66
2021/10/18 00:11:37;;;;;;;;;;;4.80;99.90;;;;;;8458197;28;19926;-65
2021/10/18 00:15:37;;;;;;;;;;;5.00;99.90;;;;;;8440786;28;19911;-65
2021/10/18 00:19:37;;;;;;;;;;;5.10;99.90;;;;;;8458334;28;20389;-65
2021/10/18 00:23:38;;;;;;;;;;;5.20;99.90;;;;;;8439511;28;19904;-65
2021/10/18 00:27:38;;;;;;;;;;;5.30;99.90;;;;;;8457428;28;20419;-65
2021/10/18 00:31:39;;;;;;;;;;;5.30;99.90;;;;;;8457814;28;19908;-65
2021/10/18 00:35:39;;;;;;;;;;;5.30;99.90;;;;;;8458558;28;19963;-65
2021/10/18 00:39:40;;;;;;;;;;;5.30;99.90;;;;;;8439294;28;19904;-65
2021/10/18 00:43:44;;;;;;;;;;;5.30;99.90;;;;;;8457850;28;19911;-65
2021/10/18 00:47:45;;;;;;;;;;;5.40;99.90;;;;;;8457595;28;19911;-65
2021/10/18 00:51:45;;;;;;;;;;;5.40;99.90;;;;;;8456347;28;19950;-65
2021/10/18 00:55:46;;;;;;;;;;;5.50;99.90;;;;;;8438749;28;20011;-66
2021/10/18 00:59:47;;;;;;;;;;;5.50;99.90;;;;;;8457080;28;19931;-65
2021/10/18 01:03:48;;;;;;;;;;;5.40;99.90;;;;;;8438804;28;19904;-66
2021/10/18 01:07:49;;;;;;;;;;;5.30;99.90;;;;;;8456350;28;19946;-65
2021/10/18 01:11:50;;;;;;;;;;;5.40;99.90;;;;;;8438263;28;19908;-65
2021/10/18 01:15:50;;;;;;;;;;;5.40;99.90;;;;;;8439356;28;19903;-65
2021/10/18 01:19:51;;;;;;;;;;;5.50;99.90;;;;;;8456810;28;19947;-66
2021/10/18 01:23:51;;;;;;;;;;;5.70;99.90;;;;;;8456669;28;19911;-66
2021/10/18 01:27:52;;;;;;;;;;;5.60;99.90;;;;;;8444923;28;19908;-65
2021/10/18 01:31:52;;;;;;;;;;;5.70;99.90;;;;;;8463782;28;20252;-65
2021/10/18 01:35:53;;;;;;;;;;;5.50;99.90;;;;;;8462916;28;19998;-65
2021/10/18 01:39:53;;;;;;;;;;;5.50;99.90;;;;;;8463507;28;20409;-66
2021/10/18 01:43:54;;;;;;;;;;;5.50;99.90;;;;;;8445050;28;20281;-65
2021/10/18 01:47:54;;;;;;;;;;;5.50;99.90;;;;;;8462692;28;19912;-66
2021/10/18 01:51:54;;;;;;;;;;;5.30;99.90;;;;;;8444584;28;19920;-65
2021/10/18 01:55:55;;;;;;;;;;;5.30;99.90;;;;;;8444663;28;20274;-66
2021/10/18 01:59:56;;;;;;;;;;;5.40;99.90;;;;;;8462676;28;19907;-66
2021/10/18 02:03:56;;;;;;;;;;;5.20;99.90;;;;;;8462383;28;20018;-65
2021/10/18 02:07:57;;;;;;;;;;;5.30;99.90;;;;;;8462283;28;19907;-66
2021/10/18 02:11:57;;;;;;;;;;;5.40;99.90;;;;;;8461403;28;19928;-65
2021/10/18 02:15:58;;;;;;;;;;;5.30;99.90;;;;;;8461808;28;20393;-66
2021/10/18 02:19:58;;;;;;;;;;;5.60;99.90;;;;;;8461374;28;19939;-65
2021/10/18 02:23:58;;;;;;;;;;;5.50;99.90;;;;;;8460738;28;19907;-66
2021/10/18 02:27:59;;;;;;;;;;;5.40;99.90;;;;;;8442753;28;20378;-65
2021/10/18 02:31:59;;;;;;;;;;;5.40;99.90;;;;;;8463105;28;20363;-66
2021/10/18 02:36:00;;;;;;;;;;;5.40;99.90;;;;;;8462534;28;19922;-65
2021/10/18 02:40:00;;;;;;;;;;;5.50;99.90;;;;;;8462600;28;19990;-65
2021/10/18 02:44:01;;;;;;;;;;;5.60;99.90;;;;;;8462482;28;19904;-65
2021/10/18 02:48:01;;;;;;;;;;;5.70;99.90;;;;;;8444165;28;19915;-65
2021/10/18 02:52:02;;;;;;;;;;;5.90;99.90;;;;;;8461899;28;19915;-65
2021/10/18 02:56:03;;;;;;;;;;;5.60;99.90;;;;;;8462468;28;19911;-67
2021/10/18 03:00:04;;;;;;;;;;;5.60;99.90;;;;;;8460355;28;19904;-66
2021/10/18 03:04:04;;;;;;;;;;;5.40;99.90;;;;;;8462097;28;20433;-66
2021/10/18 03:08:05;;;;;;;;;;;5.30;99.90;;;;;;8461893;28;19919;-66
2021/10/18 03:12:05;;;;;;;;;;;5.30;99.90;;;;;;8442951;28;19908;-66
2021/10/18 03:16:06;;;;;;;;;;;5.40;99.90;;;;;;8461555;28;19911;-66
2021/10/18 03:20:07;;;;;;;;;;;5.40;99.90;;;;;;8461209;28;19956;-66
2021/10/18 03:24:08;;;;;;;;;;;5.60;99.90;;;;;;8449772;28;19962;-67
2021/10/18 03:28:08;;;;;;;;;;;5.40;99.90;;;;;;8456132;28;19991;-67
2021/10/18 03:32:09;;;;;;;;;;;5.50;99.90;;;;;;8457873;28;19903;-67
2021/10/18 03:36:09;;;;;;;;;;;5.50;99.90;;;;;;8457101;28;19914;-67
2021/10/18 03:40:12;;;;;;;;;;;5.50;99.90;;;;;;8458094;28;19927;-67
2021/10/18 03:44:12;;;;;;;;;;;5.60;99.90;;;;;;8439483;28;19908;-67
2021/10/18 03:48:13;;;;;;;;;;;5.60;99.90;;;;;;8457293;28;20355;-67
2021/10/18 03:52:14;;;;;;;;;;;5.80;99.90;;;;;;8440023;28;19910;-67
2021/10/18 03:56:15;;;;;;;;;;;5.70;99.90;;;;;;8459013;28;19978;-67
2021/10/18 04:00:15;;;;;;;;;;;5.70;99.90;;;;;;8457052;28;19915;-66
2021/10/18 04:04:16;;;;;;;;;;;5.60;99.90;;;;;;8458876;28;19915;-67
2021/10/18 04:08:16;;;;;;;;;;;5.60;99.90;;;;;;8458038;28;19923;-67
2021/10/18 04:12:17;;;;;;;;;;;5.60;99.90;;;;;;8443562;28;19912;-67
2021/10/18 04:16:17;;;;;;;;;;;5.70;99.90;;;;;;8423648;28;19926;-67
2021/10/18 04:20:18;;;;;;;;;;;5.60;99.90;;;;;;8407809;28;19915;-67
2021/10/18 04:24:18;;;;;;;;;;;5.70;99.90;;;;;;8426007;28;19904;-67
2021/10/18 04:28:19;;;;;;;;;;;5.80;99.90;;;;;;8442121;28;19907;-67
2021/10/18 04:32:19;;;;;;;;;;;5.80;99.90;;;;;;8449172;28;19917;-67
2021/10/18 04:36:20;;;;;;;;;;;5.80;99.90;;;;;;8417460;28;19923;-66
2021/10/18 04:40:20;;;;;;;;;;;5.90;99.90;;;;;;8438919;28;20006;-67
2021/10/18 04:44:20;;;;;;;;;;;6.10;99.90;;;;;;8434510;28;19904;-67
2021/10/18 04:48:21;;;;;;;;;;;6.00;99.90;;;;;;8441152;28;19918;-66
2021/10/18 04:52:21;;;;;;;;;;;5.90;99.90;;;;;;8441172;28;19908;-67
2021/10/18 04:56:22;;;;;;;;;;;5.90;99.90;;;;;;8440939;28;19916;-66
2021/10/18 05:00:24;;;;;;;;;;;6.00;99.90;;;;;;8447684;28;19916;-67
2021/10/18 05:04:24;;;;;;;;;;;6.00;99.90;;;;;;8440441;28;19939;-67
2021/10/18 05:08:25;;;;;;;;;;;6.10;99.90;;;;;;8445935;28;19916;-66
2021/10/18 05:12:25;;;;;;;;;;;6.20;99.90;;;;;;8437651;28;19914;-66
2021/10/18 05:16:26;;;;;;;;;;;6.10;99.90;;;;;;8431741;28;20407;-66
2021/10/18 05:20:27;;;;;;;;;;;6.20;99.90;;;;;;8419054;28;19911;-66
2021/10/18 05:24:27;;;;;;;;;;;6.00;99.90;;;;;;8424813;28;19911;-66
2021/10/18 05:28:28;;;;;;;;;;;6.20;99.90;;;;;;8456806;28;19934;-66
2021/10/18 05:32:28;;;;;;;;;;;6.20;99.90;;;;;;8461249;28;20379;-66
2021/10/18 05:36:28;;;;;;;;;;;6.20;99.90;;;;;;8462806;27;19954;-66
2021/10/18 05:40:29;;;;;;;;;;;6.30;99.90;;;;;;8446414;28;19969;-66
2021/10/18 05:44:29;;;;;;;;;;;6.00;99.90;;;;;;8460348;27;19915;-66
2021/10/18 05:48:30;;;;;;;;;;;6.10;99.90;;;;;;8444298;28;19920;-66
2021/10/18 05:52:31;;;;;;;;;;;6.30;99.90;;;;;;8454706;28;19908;-67
2021/10/18 05:56:31;;;;;;;;;;;7.00;99.90;;;;;;8448144;28;20402;-67
2021/10/18 06:00:36;;;;;;;;;;;7.60;99.90;;;;;;8440182;28;19936;-67
2021/10/18 06:04:41;;;;;;;;;;;8.50;99.90;;;;;;8452830;28;19957;-67
2021/10/18 06:08:42;;;;;;;;;;;8.40;99.90;;;;;;8442612;28;20316;-67
2021/10/18 06:12:43;;;;;;;;;;;7.50;99.90;;;;;;8448744;28;19922;-67
2021/10/18 06:16:44;;;;;;;;;;;7.00;99.90;;;;;;8461677;28;19910;-67
2021/10/18 06:20:46;;;;;;;;;;;6.70;99.90;;;;;;8460025;28;19915;-67
2021/10/18 06:24:46;;;;;;;;;;;6.90;99.90;;;;;;8443616;28;19994;-66
2021/10/18 06:28:47;;;;;;;;;;;6.90;99.90;;;;;;8441886;28;20287;-67
2021/10/18 06:32:47;;;;;;;;;;;6.70;99.90;;;;;;8460020;28;19998;-67
2021/10/18 06:36:48;;;;;;;;;;;6.70;99.90;;;;;;8460395;28;19912;-66
2021/10/18 06:40:49;;;;;;;;;;;6.50;99.90;;;;;;8460643;28;19961;-67
2021/10/18 06:44:49;;;;;;;;;;;6.50;99.90;;;;;;8426676;28;20444;-67
2021/10/18 06:48:50;;;;;;;;;;;6.50;99.90;;;;;;8442176;28;19964;-67
2021/10/18 06:52:50;;;;;;;;;;;6.50;99.90;;;;;;8449646;28;19915;-67
2021/10/18 06:56:52;;;;;;;;;;;6.50;99.90;;;;;;8442342;28;19915;-67
2021/10/18 07:00:53;;;;;;;;;;;6.70;99.90;;;;;;8428795;28;19908;-67
2021/10/18 07:04:53;;;;;;;;;;;6.60;99.90;;;;;;8408488;28;20337;-66
2021/10/18 07:08:54;;;;;;;;;;;6.60;99.90;;;;;;8426472;28;19908;-67
2021/10/18 07:12:54;;;;;;;;;;;6.70;99.90;;;;;;8407865;28;19908;-67
2021/10/18 07:16:54;;;;;;;;;;;6.80;99.90;;;;;;8408252;28;19956;-67
2021/10/18 07:20:55;;;;;;;;;;;7.20;99.90;;;;;;8426508;28;19919;-67
2021/10/18 07:24:56;;;;;;;;;;;7.20;99.90;;;;;;8425533;28;19904;-67
2021/10/18 07:28:56;;;;;;;;;;;7.40;99.90;;;;;;8446803;28;20363;-66
2021/10/18 07:32:57;;;;;;;;;;;7.40;99.90;;;;;;8459677;28;19951;-67
2021/10/18 07:36:57;;;;;;;;;;;7.40;99.90;;;;;;8458803;28;19911;-69
2021/10/18 07:40:57;;;;;;;;;;;7.40;99.90;;;;;;8459151;28;19950;-66
2021/10/18 07:44:58;;;;;;;;;;;7.40;99.90;;;;;;8457982;28;19998;-67
2021/10/18 07:48:59;;;;;;;;;;;7.60;99.90;;;;;;8453338;28;19915;-67
2021/10/18 07:52:59;;;;;;;;;;;7.50;99.90;;;;;;8408262;28;19926;-67
2021/10/18 07:57:00;;;;;;;;;;;7.70;99.90;;;;;;8428375;28;20008;-67
2021/10/18 08:01:00;;;;;;;;;;;8.00;99.90;;;;;;8431336;28;19947;-66
2021/10/18 08:05:01;;;;;;;;;;;8.00;99.90;;;;;;8424073;28;19914;-67
2021/10/18 08:09:02;;;;;;;;;;;8.00;99.90;;;;;;8447862;28;19913;-67
2021/10/18 08:13:03;;;;;;;;;;;7.80;99.90;;;;;;8429182;28;19916;-67
2021/10/18 08:17:06;;;;;;;;;;;8.00;99.90;;;;;;8409974;28;19912;-67
2021/10/18 08:21:08;;;;;;;;;;;8.20;99.90;;;;;;8425219;28;19904;-67
2021/10/18 08:25:08;;;;;;;;;;;8.20;99.90;;;;;;8429703;28;19955;-67
2021/10/18 08:29:09;;;;;;;;;;;8.50;99.90;;;;;;8450174;28;19911;-66
2021/10/18 08:33:09;;;;;;;;;;;8.50;99.90;;;;;;8458069;28;19904;-67
2021/10/18 08:37:10;;;;;;;;;;;8.40;99.90;;;;;;8434242;28;19915;-67
2021/10/18 08:45:29;;;;;;;;;;;8.60;99.90;;;;;;8431014;28;19954;-67
2021/10/18 08:49:30;;;;;;;;;;;8.70;99.90;;;;;;8440497;28;19904;-67
2021/10/18 08:53:30;;;;;;;;;;;8.80;99.90;;;;;;8458586;28;19915;-67
2021/10/18 08:57:31;;;;;;;;;;;8.90;99.90;;;;;;8456658;28;19907;-68
2021/10/18 09:01:42;;;;;;;;;;;8.80;99.90;;;;;;8456514;28;19908;-68
2021/10/18 09:05:43;;;;;;;;;;;8.90;99.90;;;;;;8451063;28;19908;-68
2021/10/18 09:09:47;;;;;;;;;;;9.00;99.90;;;;;;8439727;28;19908;-68
2021/10/18 09:13:51;;;;;;;;;;;9.20;99.90;;;;;;8455997;28;19910;-68
2021/10/18 09:17:51;;;;;;;;;;;9.40;99.90;;;;;;8455643;28;19908;-68
2021/10/18 09:21:56;;;;;;;;;;;9.60;99.90;;;;;;8456342;28;19904;-68
2021/10/18 09:26:01;;;;;;;;;;;9.70;99.90;;;;;;8455197;28;19915;-68
2021/10/18 09:30:01;;;;;;;;;;;9.40;99.90;;;;;;8430848;28;19972;-64
2021/10/18 09:34:22;;;;;;;;;;;9.80;99.90;;;;;;8429959;28;19912;-64
2021/10/18 09:38:24;;;;;;;;;;;10.10;99.90;;;;;;8454401;28;19911;-64
2021/10/18 09:42:24;;;;;;;;;;;10.00;99.90;;;;;;8433905;28;19947;-64
2021/10/18 09:46:36;;;;;;;;;;;9.60;99.90;;;;;;8457220;28;19916;-64
2021/10/18 10:52:49;;;;;;;;;;;12.20;99.90;;;;;;8435236;28;19931;-64
2021/10/18 10:57:00;;;;;;;;;;;12.20;99.90;;;;;;8435700;28;19915;-64
2021/10/18 11:01:02;;;;;;;;;;;11.50;99.90;;;;;;8435133;28;19908;-64
2021/10/18 11:05:03;;;;;;;;;;;11.80;99.90;;;;;;8415303;28;19908;-63
2021/10/18 11:09:24;;;;;;;;;;;11.90;99.90;;;;;;8431935;28;19915;-64
2021/10/18 11:13:24;;;;;;;;;;;12.00;99.90;;;;;;8441366;28;19912;-64
2021/10/18 11:17:29;;;;;;;;;;;12.60;99.90;;;;;;8428518;28;19992;-64
2021/10/18 11:21:32;;;;;;;;;;;14.30;99.90;;;;;;8459303;28;19911;-63
2021/10/18 11:25:36;;;;;;;;;;;14.00;99.90;;;;;;8459154;28;19908;-64
2021/10/18 11:29:36;;;;;;;;;;;13.70;99.90;;;;;;8457036;28;19915;-64
2021/10/18 11:33:37;;;;;;;;;;;14.40;99.90;;;;;;8461397;28;20247;-64
2021/10/18 11:37:58;;;;;;;;;;;16.20;99.90;;;;;;8460247;28;20359;-64
2021/10/18 11:41:59;;;;;;;;;;;15.80;99.90;;;;;;8459876;28;19914;-63
2021/10/18 11:45:59;;;;;;;;;;;14.20;99.90;;;;;;8431098;28;20364;-64
2021/10/18 11:50:03;;;;;;;;;;;13.90;99.90;;;;;;8422910;28;19908;-64
2021/10/18 11:54:06;;;;;;;;;;;15.00;99.90;;;;;;8427255;28;19919;-64
2021/10/18 11:58:07;;;;;;;;;;;17.70;99.90;;;;;;8440287;28;19919;-64
2021/10/18 12:02:18;;;;;;;;;;;18.40;99.90;;;;;;8445660;28;20254;-64
2021/10/18 12:06:18;;;;;;;;;;;19.50;99.90;;;;;;8438155;28;20332;-64
2021/10/18 12:10:38;;;;;;;;;;;18.10;99.90;;;;;;8424713;28;20029;-64
2021/10/18 12:14:49;;;;;;;;;;;18.60;99.90;;;;;;8407527;28;19908;-64
2021/10/18 12:18:51;;;;;;;;;;;19.80;99.90;;;;;;8424168;28;19912;-64
2021/10/18 12:22:59;;;;;;;;;;;23.60;99.90;;;;;;8405908;28;19911;-64
2021/10/18 12:27:03;;;;;;;;;;;23.70;96.80;;;;;;8430343;28;19915;-64
2021/10/18 12:31:03;;;;;;;;;;;23.90;96.70;;;;;;8405947;28;19910;-64
2021/10/18 12:35:04;;;;;;;;;;;23.80;93.60;;;;;;8433034;28;19908;-64
2021/10/18 12:39:04;;;;;;;;;;;21.90;97.40;;;;;;8436858;28;19907;-64
2021/10/18 12:43:06;;;;;;;;;;;24.30;93.30;;;;;;8424557;28;19947;-64
2021/10/18 12:47:16;;;;;;;;;;;24.20;91.90;;;;;;8423253;28;19912;-64
2021/10/18 12:51:29;;;;;;;;;;;24.50;90.90;;;;;;8437052;28;19908;-64
2021/10/18 12:55:30;;;;;;;;;;;25.50;87.20;;;;;;8456685;28;19912;-65
2021/10/18 12:59:31;;;;;;;;;;;27.00;80.40;;;;;;8429529;28;19908;-65
2021/10/18 13:03:33;;;;;;;;;;;29.50;69.70;;;;;;8439508;28;19904;-64
2021/10/18 13:07:34;;;;;;;;;;;27.70;68.20;;;;;;8451338;28;19957;-64
2021/10/18 13:11:40;;;;;;;;;;;27.90;65.00;;;;;;8446140;28;20448;-65
2021/10/18 13:15:42;;;;;;;;;;;29.00;63.40;;;;;;8423932;28;19904;-65
2021/10/18 13:19:42;;;;;;;;;;;30.80;58.30;;;;;;8425621;28;19908;-65
2021/10/18 13:23:43;;;;;;;;;;;31.10;54.70;;;;;;8428903;28;20082;-65
2021/10/18 13:27:43;;;;;;;;;;;29.00;57.50;;;;;;8441108;28;20419;-65
2021/10/18 13:31:44;;;;;;;;;;;28.60;57.50;;;;;;8462894;28;20264;-65
2021/10/18 13:35:44;;;;;;;;;;;28.70;57.00;;;;;;8462942;28;20006;-65
2021/10/18 13:39:45;;;;;;;;;;;30.60;54.30;;;;;;8462827;28;19935;-65
2021/10/18 13:43:45;;;;;;;;;;;30.20;53.30;;;;;;8450562;28;19922;-65
2021/10/18 13:47:46;;;;;;;;;;;31.20;54.70;;;;;;8438327;28;20387;-65
2021/10/18 13:51:47;;;;;;;;;;;32.50;50.30;;;;;;8447157;28;19904;-65
2021/10/18 13:55:49;;;;;;;;;;;31.00;51.60;;;;;;8443949;28;19958;-65
2021/10/18 13:59:50;;;;;;;;;;;28.10;56.90;;;;;;8447525;28;19961;-65
2021/10/18 14:03:50;;;;;;;;;;;25.60;62.90;;;;;;8451769;28;20276;-65
2021/10/18 14:07:51;;;;;;;;;;;23.80;68.90;;;;;;8460842;28;19919;-64
2021/10/18 14:11:51;;;;;;;;;;;22.30;75.10;;;;;;8460622;28;19918;-65
2021/10/18 14:15:51;;;;;;;;;;;20.50;83.20;;;;;;8460193;28;20412;-65
2021/10/18 14:19:52;;;;;;;;;;;19.10;90.50;;;;;;8460809;28;19948;-65
2021/10/18 14:23:52;;;;;;;;;;;18.40;93.60;;;;;;8460454;28;19911;-64
2021/10/18 14:27:53;;;;;;;;;;;18.10;95.50;;;;;;8442658;28;20298;-64
2021/10/18 14:31:54;;;;;;;;;;;17.80;98.00;;;;;;8458512;28;19907;-64
2021/10/18 14:35:54;;;;;;;;;;;17.60;99.90;;;;;;8442043;28;19910;-64
2021/10/18 14:39:55;;;;;;;;;;;17.30;99.90;;;;;;8433096;28;20109;-64
2021/10/18 14:43:56;;;;;;;;;;;16.90;99.90;;;;;;8443625;28;19907;-64
2021/10/18 14:47:57;;;;;;;;;;;16.70;99.90;;;;;;8459210;28;20055;-64
2021/10/18 14:51:57;;;;;;;;;;;16.50;99.90;;;;;;8459102;28;19903;-64
2021/10/18 14:55:58;;;;;;;;;;;15.90;99.90;;;;;;8460754;28;19912;-63
2021/10/18 14:59:59;;;;;;;;;;;15.50;99.90;;;;;;8459221;28;19904;-63
2021/10/18 15:03:59;;;;;;;;;;;14.30;99.90;;;;;;8459962;28;20367;-63
2021/10/18 15:08:01;;;;;;;;;;;13.60;99.90;;;;;;8460587;28;19916;-63
2021/10/18 15:12:02;;;;;;;;;;;13.50;99.90;;;;;;8459274;28;19918;-64
2021/10/18 15:16:02;;;;;;;;;;;13.60;99.90;;;;;;8458728;28;19904;-64
2021/10/18 15:20:03;;;;;;;;;;;13.60;99.90;;;;;;8441741;28;19911;-63
2021/10/18 15:24:03;;;;;;;;;;;13.70;99.90;;;;;;8459279;28;20314;-64
2021/10/18 15:28:04;;;;;;;;;;;13.40;99.90;;;;;;8459360;28;20707;-64
2021/10/18 15:32:05;;;;;;;;;;;13.30;99.90;;;;;;8458666;28;19904;-63
2021/10/18 15:36:05;;;;;;;;;;;13.20;99.90;;;;;;8459697;28;19915;-63
2021/10/18 15:40:07;;;;;;;;;;;12.70;99.90;;;;;;8459301;28;19907;-64
2021/10/18 15:44:07;;;;;;;;;;;12.50;99.90;;;;;;8452231;28;20210;-63
2021/10/18 15:48:08;;;;;;;;;;;12.40;99.90;;;;;;8457841;28;19922;-63
2021/10/18 15:52:08;;;;;;;;;;;12.00;99.90;;;;;;8440792;28;19911;-63
2021/10/18 15:56:09;;;;;;;;;;;11.70;99.90;;;;;;8459059;28;19959;-63
2021/10/18 16:00:10;;;;;;;;;;;11.50;99.90;;;;;;8455219;28;19915;-63
2021/10/18 16:04:10;;;;;;;;;;;11.30;99.90;;;;;;8432658;28;20514;-64
2021/10/18 16:08:11;;;;;;;;;;;11.10;99.90;;;;;;8446662;28;20463;-63
2021/10/18 16:12:11;;;;;;;;;;;11.00;99.90;;;;;;8450229;28;19908;-63
2021/10/18 16:16:12;;;;;;;;;;;10.80;99.90;;;;;;8440941;28;20032;-64
2021/10/18 16:20:12;;;;;;;;;;;10.90;99.90;;;;;;8447761;28;19912;-63
2021/10/18 16:24:16;;;;;;;;;;;11.00;99.90;;;;;;8450828;28;20040;-63
2021/10/18 16:28:17;;;;;;;;;;;10.80;99.90;;;;;;8420948;28;19912;-64
2021/10/18 16:32:18;;;;;;;;;;;10.60;99.90;;;;;;8424371;28;19954;-63
2021/10/18 16:36:20;;;;;;;;;;;10.10;99.90;;;;;;8439109;28;19904;-63
2021/10/18 16:40:20;;;;;;;;;;;9.80;99.90;;;;;;8435493;28;19969;-64
2021/10/18 16:44:21;;;;;;;;;;;9.50;99.90;;;;;;8438548;28;19904;-63
2021/10/18 16:48:21;;;;;;;;;;;9.80;99.90;;;;;;8416842;28;19916;-63
2021/10/18 16:52:22;;;;;;;;;;;9.50;99.90;;;;;;8450598;28;19904;-66
2021/10/18 16:56:23;;;;;;;;;;;9.30;99.90;;;;;;8462186;28;19911;-66
2021/10/18 17:00:23;;;;;;;;;;;9.50;99.90;;;;;;8452744;28;20264;-66
2021/10/18 17:04:24;;;;;;;;;;;9.10;99.90;;;;;;8445362;28;19908;-66
2021/10/18 17:08:26;;;;;;;;;;;8.90;99.90;;;;;;8435476;28;19912;-66
2021/10/18 17:12:27;;;;;;;;;;;8.70;99.90;;;;;;8456628;28;19968;-66
2021/10/18 17:16:28;;;;;;;;;;;8.60;99.90;;;;;;8435533;28;20287;-66
2021/10/18 17:20:29;;;;;;;;;;;8.40;99.90;;;;;;8430447;28;19903;-66
2021/10/18 17:24:30;;;;;;;;;;;8.30;99.90;;;;;;8415281;28;20041;-66
2021/10/18 17:28:30;;;;;;;;;;;8.70;99.90;;;;;;8433578;28;20109;-66
2021/10/18 17:32:31;;;;;;;;;;;8.50;99.90;;;;;;8441267;28;19908;-66
2021/10/18 17:36:32;;;;;;;;;;;8.40;99.90;;;;;;8434031;28;19961;-66
2021/10/18 17:40:32;;;;;;;;;;;8.30;99.90;;;;;;8450202;28;19914;-66
2021/10/18 17:44:33;;;;;;;;;;;8.10;99.90;;;;;;8459414;28;19904;-66
2021/10/18 17:48:34;;;;;;;;;;;8.10;99.90;;;;;;8458068;28;19911;-66
2021/10/18 17:52:35;;;;;;;;;;;8.20;99.90;;;;;;8461283;28;19936;-66
2021/10/18 17:56:36;;;;;;;;;;;8.40;99.90;;;;;;8458078;28;19920;-66
2021/10/18 18:00:37;;;;;;;;;;;8.10;99.90;;;;;;8450934;28;19935;-66
2021/10/18 18:04:39;;;;;;;;;;;7.80;99.90;;;;;;8458755;28;19910;-66
2021/10/18 18:08:39;;;;;;;;;;;7.80;99.90;;;;;;8457073;28;20383;-67
2021/10/18 18:12:40;;;;;;;;;;;7.70;99.90;;;;;;8456886;28;20234;-66
2021/10/18 18:16:41;;;;;;;;;;;7.40;99.90;;;;;;8455309;28;19976;-65
2021/10/18 18:20:42;;;;;;;;;;;7.50;99.90;;;;;;8434377;28;19908;-66
2021/10/18 18:24:43;;;;;;;;;;;7.40;99.90;;;;;;8459590;28;19907;-66
2021/10/18 18:28:43;;;;;;;;;;;7.10;99.90;;;;;;8459743;28;19958;-66
2021/10/18 18:32:44;;;;;;;;;;;7.10;99.90;;;;;;8446577;28;19918;-66
2021/10/18 18:36:45;;;;;;;;;;;7.10;99.90;;;;;;8460125;28;19904;-66
2021/10/18 18:40:46;;;;;;;;;;;7.00;99.90;;;;;;8461121;28;19998;-66
2021/10/18 18:44:47;;;;;;;;;;;7.40;99.90;;;;;;8459381;28;19964;-66
2021/10/18 18:48:48;;;;;;;;;;;7.00;99.90;;;;;;8456808;28;20363;-66
2021/10/18 18:52:50;;;;;;;;;;;6.70;99.90;;;;;;8427668;28;19916;-66
2021/10/18 18:56:50;;;;;;;;;;;6.60;99.90;;;;;;8452431;28;19915;-66
2021/10/18 19:00:51;;;;;;;;;;;6.50;99.90;;;;;;8428826;28;20004;-66
2021/10/18 19:04:51;;;;;;;;;;;6.70;99.90;;;;;;8438695;28;19999;-66
2021/10/18 19:08:52;;;;;;;;;;;6.70;99.90;;;;;;8435695;28;19908;-66
2021/10/18 19:12:53;;;;;;;;;;;6.60;99.90;;;;;;8435178;28;19914;-66
2021/10/18 19:16:54;;;;;;;;;;;6.70;99.90;;;;;;8455571;28;20303;-66
2021/10/18 19:20:54;;;;;;;;;;;6.40;99.90;;;;;;8448426;28;19915;-66
2021/10/18 19:24:55;;;;;;;;;;;6.40;99.90;;;;;;8422826;28;19914;-66
2021/10/18 19:28:56;;;;;;;;;;;6.30;99.90;;;;;;8430198;28;19912;-66
2021/10/18 19:32:56;;;;;;;;;;;6.30;99.90;;;;;;8421735;28;19912;-66
2021/10/18 19:36:57;;;;;;;;;;;6.10;99.90;;;;;;8422670;28;19908;-66
2021/10/18 19:40:57;;;;;;;;;;;6.40;99.90;;;;;;8420796;28;19904;-66
2021/10/18 19:44:58;;;;;;;;;;;6.20;99.90;;;;;;8426976;28;19911;-66
2021/10/18 19:48:59;;;;;;;;;;;5.90;99.90;;;;;;8411017;28;19912;-66
2021/10/18 19:52:59;;;;;;;;;;;5.80;99.90;;;;;;8416890;28;19945;-65
2021/10/18 19:56:59;;;;;;;;;;;5.70;99.90;;;;;;8437024;28;19941;-66
2021/10/18 20:01:00;;;;;;;;;;;5.30;99.90;;;;;;8422753;28;20224;-66
2021/10/18 20:05:00;;;;;;;;;;;5.20;99.90;;;;;;8442242;28;19911;-66
2021/10/18 20:09:01;;;;;;;;;;;5.10;99.90;;;;;;8441818;28;19911;-66
2021/10/18 20:13:02;;;;;;;;;;;5.30;99.90;;;;;;8441627;28;19908;-66
2021/10/18 20:17:03;;;;;;;;;;;5.30;99.90;;;;;;8451893;28;19952;-65
2021/10/18 20:21:03;;;;;;;;;;;5.20;99.90;;;;;;8459148;28;19908;-66
2021/10/18 20:25:04;;;;;;;;;;;5.20;99.90;;;;;;8445282;28;19907;-66
2021/10/18 20:29:05;;;;;;;;;;;5.30;99.90;;;;;;8413968;28;19912;-66
2021/10/18 20:33:05;;;;;;;;;;;5.40;99.90;;;;;;8424556;28;20436;-66
2021/10/18 20:37:06;;;;;;;;;;;5.20;99.90;;;;;;8438595;28;20370;-66
2021/10/18 20:41:06;;;;;;;;;;;5.40;99.90;;;;;;8422493;28;20279;-66
2021/10/18 20:45:07;;;;;;;;;;;5.30;99.90;;;;;;8403551;28;20279;-65
2021/10/18 20:49:07;;;;;;;;;;;5.30;99.90;;;;;;8422023;28;19915;-66
2021/10/18 20:53:08;;;;;;;;;;;5.30;99.90;;;;;;8424453;28;19911;-66
2021/10/18 20:57:08;;;;;;;;;;;5.50;99.90;;;;;;8477434;22;19923;-64
2021/10/18 21:01:09;;;;;;;;;;;5.60;99.90;;;;;;8456341;28;19908;-65
2021/10/18 21:05:10;;;;;;;;;;;5.60;99.90;;;;;;8464079;28;20292;-65
2021/10/18 21:09:10;;;;;;;;;;;5.50;99.90;;;;;;8477640;28;20050;-65
2021/10/18 21:13:11;;;;;;;;;;;5.60;99.90;;;;;;8493100;28;19904;-65
2021/10/18 21:17:13;;;;;;;;;;;5.30;99.90;;;;;;8491388;28;19948;-65
2021/10/18 21:21:14;;;;;;;;;;;5.30;99.90;;;;;;8491312;28;20161;-65
2021/10/18 21:25:14;;;;;;;;;;;5.20;99.90;;;;;;8472035;28;19903;-65
2021/10/18 21:29:15;;;;;;;;;;;5.00;99.90;;;;;;8489176;28;19907;-65
2021/10/18 21:33:15;;;;;;;;;;;5.10;99.90;;;;;;8490725;28;20256;-65
2021/10/18 21:37:15;;;;;;;;;;;5.20;99.90;;;;;;8490634;28;19930;-65
2021/10/18 21:41:16;;;;;;;;;;;5.00;99.90;;;;;;8492804;27;19960;-65
2021/10/18 21:45:19;;;;;;;;;;;5.00;99.90;;;;;;8495550;27;19904;-65
2021/10/18 21:49:20;;;;;;;;;;;5.20;99.90;;;;;;8478098;27;19915;-65
2021/10/18 21:53:20;;;;;;;;;;;5.30;99.90;;;;;;8496676;27;19908;-65
2021/10/18 21:57:21;;;;;;;;;;;5.20;99.90;;;;;;8488349;27;20371;-65
2021/10/18 22:01:21;;;;;;;;;;;5.20;99.90;;;;;;8495654;27;19914;-65
2021/10/18 22:05:22;;;;;;;;;;;5.10;99.90;;;;;;8497540;27;19903;-65
2021/10/18 22:09:22;;;;;;;;;;;5.00;99.90;;;;;;8477478;27;19958;-65
2021/10/18 22:13:22;;;;;;;;;;;5.00;99.90;;;;;;8495477;27;19903;-65
2021/10/18 22:17:23;;;;;;;;;;;5.00;99.90;;;;;;8495049;27;20278;-65
2021/10/18 22:21:24;;;;;;;;;;;5.10;99.90;;;;;;8495581;27;20282;-65
2021/10/18 22:25:24;;;;;;;;;;;5.00;99.90;;;;;;8476794;27;19953;-65
2021/10/18 22:29:24;;;;;;;;;;;5.00;99.90;;;;;;8485023;27;19907;-65
2021/10/18 22:33:25;;;;;;;;;;;4.90;99.90;;;;;;8495877;27;20358;-65
2021/10/18 22:37:25;;;;;;;;;;;4.80;99.90;;;;;;8477063;27;19946;-65
2021/10/18 22:41:26;;;;;;;;;;;4.70;99.90;;;;;;8477215;27;19903;-65
2021/10/18 22:45:26;;;;;;;;;;;4.70;99.90;;;;;;8495841;27;19903;-65
2021/10/18 22:49:27;;;;;;;;;;;4.90;99.90;;;;;;8494738;27;19914;-65
2021/10/18 22:53:27;;;;;;;;;;;4.70;99.90;;;;;;8475882;27;19980;-65
2021/10/18 22:57:28;;;;;;;;;;;4.60;99.90;;;;;;8484363;27;20497;-65
2021/10/18 23:01:28;;;;;;;;;;;4.70;99.90;;;;;;8493372;27;19903;-65
2021/10/18 23:05:29;;;;;;;;;;;4.70;99.90;;;;;;8495241;27;20366;-65
2021/10/18 23:09:29;;;;;;;;;;;4.50;99.90;;;;;;8494478;27;20362;-65
2021/10/18 23:13:30;;;;;;;;;;;4.50;99.90;;;;;;8494438;27;19904;-65
2021/10/18 23:17:30;;;;;;;;;;;4.40;99.90;;;;;;8494720;27;19903;-65
2021/10/18 23:21:31;;;;;;;;;;;4.40;99.90;;;;;;8495663;27;20335;-65
2021/10/18 23:25:31;;;;;;;;;;;4.20;99.90;;;;;;8495554;27;19907;-65
2021/10/18 23:29:31;;;;;;;;;;;4.20;99.90;;;;;;8473893;27;19911;-65
2021/10/18 23:33:32;;;;;;;;;;;4.20;99.90;;;;;;8476650;27;19903;-65
2021/10/18 23:37:32;;;;;;;;;;;4.10;99.90;;;;;;8494461;27;20268;-65
2021/10/18 23:41:33;;;;;;;;;;;4.20;99.90;;;;;;8476220;27;20368;-65
2021/10/18 23:45:34;;;;;;;;;;;4.10;99.90;;;;;;8495177;27;19948;-65
2021/10/18 23:49:34;;;;;;;;;;;4.00;99.90;;;;;;8494642;27;20314;-65
2021/10/18 23:53:35;;;;;;;;;;;3.90;99.90;;;;;;8493141;27;19907;-65
2021/10/18 23:57:35;;;;;;;;;;;3.90;99.90;;;;;;8480789;27;19912;-65
